Portada
METAR-TAF:

METAR-TAF

Aeroports :

El Goléa, Algèria

latitud: 30-34N, longitud: 002-52E, altitud: 397 m

Observació

L'informe es va fer fa 48 minuts, a les 05:00 UTC
Vent 3 kt del Est
Temperatura 33°C
Humitat 13%
Pressió 1011 hPa
Visibilitat: 5000 m
Núvols disperses a una alçada de 4000 ft

METAR: DAUE 200500Z 10003KT 5000 SCT040 33/01 Q1011

Hora: 06:48 (05:48 UTC)


TAF: manca

Observacions i pronòstics meteorològics de més de 4000 aeroports (METAR i TAF).

Les estacions disponibles són els punts grocs i vermells al mapa.

Posi el ratolí al punt desitjat per veure el nom de l'estació.

Feu clic per veure les observacions i els pronòstics meteorològics.

Per canviar el mapa: feu clic els botons verds amb una creu de color negre per apropar; al botó verd amb un guió per allunyar la imatge; o en les fletxes verdes per a mapes adjacents.


METAR-TAF: